createdAt,value
2023-04-30T00:03:38.545Z,9.1
2023-04-30T00:08:35.013Z,9
2023-04-30T00:13:31.515Z,8.9
2023-04-30T00:18:28.076Z,8.9
2023-04-30T00:24:38.791Z,8.9
2023-04-30T00:29:35.251Z,8.8
2023-04-30T00:34:31.751Z,8.6
2023-04-30T00:39:28.386Z,8.5
2023-04-30T00:45:39.036Z,8.3
2023-04-30T00:50:35.488Z,8.3
2023-04-30T00:55:32.078Z,8.3
2023-04-30T01:00:28.570Z,8
2023-04-30T01:06:39.402Z,7.8
2023-04-30T01:11:35.862Z,7.6
2023-04-30T01:16:32.374Z,7.5
2023-04-30T01:21:28.863Z,7.6
2023-04-30T01:26:25.503Z,7.6
2023-04-30T01:32:36.551Z,7.7
2023-04-30T01:37:32.618Z,7.4
2023-04-30T01:42:29.217Z,7.3
2023-04-30T01:47:25.773Z,7.4
2023-04-30T01:53:36.771Z,7.4
2023-04-30T01:58:32.833Z,7.5
2023-04-30T02:03:29.517Z,7.5
2023-04-30T02:08:25.912Z,7.2
2023-04-30T02:14:36.641Z,6.9
2023-04-30T02:19:33.217Z,6.9
2023-04-30T02:24:29.762Z,7.1
2023-04-30T02:35:36.886Z,7.1
2023-04-30T02:40:33.385Z,6.8
2023-04-30T02:45:30.012Z,6.8
2023-04-30T02:50:26.524Z,6.6
2023-04-30T02:56:37.118Z,6.6
2023-04-30T03:01:33.749Z,6.6
2023-04-30T03:06:30.203Z,6.7
2023-04-30T03:11:26.766Z,6.6
2023-04-30T03:17:37.367Z,6.7
2023-04-30T03:22:33.935Z,6.7
2023-04-30T03:27:30.412Z,6.8
2023-04-30T03:32:27.012Z,6.8
2023-04-30T03:38:37.727Z,6.8
2023-04-30T03:42:28.248Z,6.6
2023-04-30T03:48:38.890Z,6.7
2023-04-30T03:53:35.471Z,6.7
2023-04-30T03:58:31.945Z,6.6
2023-04-30T04:03:28.500Z,6.6
2023-04-30T04:08:25.115Z,6.5
2023-04-30T04:14:35.749Z,6.8
2023-04-30T04:19:32.224Z,6.7
2023-04-30T04:24:28.758Z,6.8
2023-04-30T04:30:39.421Z,6.8
2023-04-30T04:35:36.071Z,7
2023-04-30T04:40:32.496Z,6.8
2023-04-30T04:45:29.050Z,6.9
2023-04-30T04:50:25.595Z,6.9
2023-04-30T04:56:36.270Z,6.8
2023-04-30T05:01:32.786Z,6.8
2023-04-30T05:06:29.308Z,6.9
2023-04-30T05:11:25.836Z,7.2
2023-04-30T05:17:36.508Z,7.4
2023-04-30T05:27:29.634Z,7.3
2023-04-30T05:32:26.118Z,7.8
2023-04-30T05:38:36.770Z,8.2
2023-04-30T05:43:33.322Z,8.4
2023-04-30T05:48:29.869Z,8.5
2023-04-30T05:53:26.434Z,8.6
2023-04-30T05:59:37.022Z,8.9
2023-04-30T06:04:33.573Z,8.8
2023-04-30T06:09:30.091Z,9
2023-04-30T06:14:26.659Z,9.3
2023-04-30T06:20:37.296Z,9.6
2023-04-30T06:25:33.851Z,10
2023-04-30T06:30:30.314Z,10.2
2023-04-30T06:35:26.905Z,10.3
2023-04-30T06:41:37.560Z,10.7
2023-04-30T06:46:34.314Z,10.8
2023-04-30T06:51:30.637Z,11.1
2023-04-30T06:56:27.195Z,11.3
2023-04-30T07:02:37.875Z,11.6
2023-04-30T07:07:34.421Z,11.7
2023-04-30T07:12:30.956Z,12
2023-04-30T07:17:27.886Z,12.3
2023-04-30T07:23:38.095Z,12.6
2023-04-30T07:28:34.679Z,12.7
2023-04-30T07:33:31.141Z,12.7
2023-04-30T07:38:27.729Z,12.8
2023-04-30T07:44:38.362Z,13.3
2023-04-30T07:49:34.876Z,13.4
2023-04-30T07:54:31.462Z,13.8
2023-04-30T07:59:27.951Z,13.8
2023-04-30T08:05:38.639Z,14.1
2023-04-30T08:10:35.280Z,13.9
2023-04-30T08:15:31.652Z,13.9
2023-04-30T08:20:28.244Z,13.9
2023-04-30T08:26:38.882Z,13.1
2023-04-30T08:31:35.539Z,13.7
2023-04-30T08:36:31.958Z,12.8
2023-04-30T08:41:28.504Z,10.7
2023-04-30T08:47:39.217Z,11.1
2023-04-30T08:52:35.728Z,10.4
2023-04-30T08:57:32.296Z,9.2
2023-04-30T09:02:28.811Z,10.1
2023-04-30T09:08:39.505Z,9.5
2023-04-30T09:13:35.972Z,8.6
2023-04-30T09:18:32.511Z,8.6
2023-04-30T09:23:28.998Z,8.2
2023-04-30T09:28:25.645Z,7.3
2023-04-30T09:34:36.222Z,7.6
2023-04-30T09:39:32.843Z,6.7
2023-04-30T09:44:29.282Z,6.7
2023-04-30T09:50:41.375Z,7.6
2023-04-30T09:55:36.489Z,7.2
2023-04-30T10:05:29.641Z,7.1
2023-04-30T10:10:26.197Z,6.7
2023-04-30T10:16:36.806Z,7.1
2023-04-30T10:21:33.284Z,6.3
2023-04-30T10:26:29.907Z,6.5
2023-04-30T10:31:26.523Z,8.1
2023-04-30T10:37:37.002Z,8.3
2023-04-30T10:42:33.577Z,8.2
2023-04-30T10:47:30.229Z,7.2
2023-04-30T10:52:26.585Z,7.7
2023-04-30T10:58:37.301Z,7.9
2023-04-30T11:03:33.819Z,7.2
2023-04-30T11:08:30.441Z,8
2023-04-30T11:13:26.882Z,6.9
2023-04-30T11:19:37.545Z,8.4
2023-04-30T11:24:34.160Z,6.6
2023-04-30T11:29:30.643Z,5.7
2023-04-30T11:34:27.156Z,7
2023-04-30T11:40:37.845Z,8.1
2023-04-30T11:45:34.393Z,7.9
2023-04-30T11:50:30.882Z,8.6
2023-04-30T11:55:27.570Z,9.3
2023-04-30T12:00:32.140Z,8.5
2023-04-30T12:05:28.702Z,8.7
2023-04-30T12:11:39.338Z,8.2
2023-04-30T12:16:35.987Z,8.6
2023-04-30T12:21:32.397Z,9
2023-04-30T12:26:28.946Z,7.3
2023-04-30T12:31:25.530Z,9.2
2023-04-30T12:37:36.184Z,9.4
2023-04-30T12:42:32.733Z,8.8
2023-04-30T12:47:29.226Z,6.7
2023-04-30T12:52:25.730Z,7.8
2023-04-30T12:58:38.246Z,8.7
2023-04-30T13:03:33.380Z,9.2
2023-04-30T13:08:29.541Z,7.8
2023-04-30T13:13:25.996Z,7.5
2023-04-30T13:19:36.648Z,7.5
2023-04-30T13:24:33.244Z,8.2
2023-04-30T13:29:29.779Z,7.9
2023-04-30T13:40:36.971Z,7.2
2023-04-30T13:45:33.585Z,7.2
2023-04-30T13:50:30.047Z,7.7
2023-04-30T13:55:26.528Z,9.3
2023-04-30T14:01:37.189Z,9.8
2023-04-30T14:06:33.836Z,8.8
2023-04-30T14:11:30.248Z,9.2
2023-04-30T14:16:26.842Z,8.3
2023-04-30T14:22:37.467Z,8.1
2023-04-30T14:27:34.051Z,8.4
2023-04-30T14:32:30.639Z,7.7
2023-04-30T14:37:27.100Z,7.5
2023-04-30T14:43:37.741Z,7.7
2023-04-30T14:48:34.289Z,7.4
2023-04-30T14:53:30.835Z,8.6
2023-04-30T15:04:38.040Z,7
2023-04-30T15:09:34.677Z,7
2023-04-30T15:14:31.189Z,7.1
2023-04-30T15:19:27.631Z,6.9
2023-04-30T15:25:38.300Z,8.9
2023-04-30T15:30:34.804Z,9.3
2023-04-30T15:35:31.414Z,7.7
2023-04-30T15:40:27.881Z,7.1
2023-04-30T15:46:38.651Z,6.6
2023-04-30T15:51:35.076Z,6.6
2023-04-30T15:56:31.599Z,7.3
2023-04-30T16:01:28.211Z,7
2023-04-30T16:07:38.908Z,7.1
2023-04-30T16:12:35.351Z,7.8
2023-04-30T16:17:31.917Z,8.5
2023-04-30T16:22:28.428Z,8.7
2023-04-30T16:28:39.155Z,9.5
2023-04-30T16:33:35.704Z,8.7
2023-04-30T16:38:32.157Z,8.5
2023-04-30T16:43:28.697Z,8.8
2023-04-30T16:49:39.370Z,7.3
2023-04-30T16:54:35.963Z,7.1
2023-04-30T16:59:32.424Z,6.9
2023-04-30T17:04:29.088Z,6.9
2023-04-30T17:09:25.526Z,7.2
2023-04-30T17:15:36.192Z,6.8
2023-04-30T17:20:32.762Z,7.4
2023-04-30T17:25:29.355Z,7.4
2023-04-30T17:31:39.929Z,7
2023-04-30T17:36:36.475Z,6.9
2023-04-30T17:41:33.014Z,6.9
2023-04-30T17:46:29.569Z,6.4
2023-04-30T17:51:26.090Z,6.8
2023-04-30T17:57:36.699Z,6.5
2023-04-30T18:02:33.400Z,6.2
2023-04-30T18:07:29.788Z,6.3
2023-04-30T18:12:26.570Z,6.6
2023-04-30T18:18:36.961Z,6.2
2023-04-30T18:23:33.512Z,6.2
2023-04-30T18:28:30.136Z,6.2
2023-04-30T18:33:26.582Z,6
2023-04-30T18:39:37.226Z,5.8
2023-04-30T18:44:33.828Z,5.8
2023-04-30T18:49:30.345Z,5.9
2023-04-30T18:54:26.865Z,6.3
2023-04-30T19:00:37.538Z,6.3
2023-04-30T19:05:34.048Z,6.2
2023-04-30T19:10:30.561Z,6.2
2023-04-30T19:15:27.120Z,6.8
2023-04-30T19:21:37.858Z,7
2023-04-30T19:26:34.330Z,7.6
2023-04-30T19:31:30.930Z,7.3
2023-04-30T19:42:38.039Z,7.4
2023-04-30T19:47:34.677Z,7.3
2023-04-30T19:52:31.071Z,7.7
2023-04-30T19:57:27.629Z,7.3
2023-04-30T20:03:38.368Z,7
2023-04-30T20:08:34.907Z,7.5
2023-04-30T20:13:31.363Z,7.9
2023-04-30T20:18:27.897Z,7.2
2023-04-30T20:24:38.604Z,7
2023-04-30T20:29:35.149Z,7
2023-04-30T20:34:31.636Z,7.5
2023-04-30T20:39:28.238Z,7.3
2023-04-30T20:45:38.949Z,7.5
2023-04-30T20:50:35.417Z,8.1
2023-04-30T20:55:31.931Z,8.5
2023-04-30T21:00:28.453Z,8.9
2023-04-30T21:06:39.176Z,9
2023-04-30T21:11:35.743Z,9.5
2023-04-30T21:16:32.200Z,9.4
2023-04-30T21:21:28.712Z,9.3
2023-04-30T21:26:25.272Z,9.4
2023-04-30T21:32:35.936Z,9.3
2023-04-30T21:37:32.535Z,9.2
2023-04-30T21:42:28.991Z,9.3
2023-04-30T21:47:25.552Z,9.5
2023-04-30T21:53:36.160Z,9.4
2023-04-30T21:58:32.762Z,9.3
2023-04-30T22:03:29.529Z,9.4
2023-04-30T22:08:25.863Z,9.5
2023-04-30T22:14:36.458Z,9.4
2023-04-30T22:19:33.028Z,9.3
2023-04-30T22:24:29.557Z,9.3
2023-04-30T22:29:26.048Z,9.2
2023-04-30T22:35:36.718Z,9
2023-04-30T22:40:33.237Z,9.1
2023-04-30T22:45:29.827Z,9.1
2023-04-30T22:50:26.290Z,9.4
2023-04-30T22:56:36.980Z,9.1
2023-04-30T23:01:33.986Z,9.1
2023-04-30T23:06:30.196Z,8.9
2023-04-30T23:11:26.584Z,8.9
2023-04-30T23:17:37.297Z,8.5
2023-04-30T23:22:33.938Z,8.4
2023-04-30T23:27:30.289Z,8.3
2023-04-30T23:32:27.000Z,8.5
2023-04-30T23:38:37.516Z,8.4
2023-04-30T23:43:34.086Z,8.5
2023-04-30T23:48:30.552Z,8.4
2023-04-30T23:53:27.125Z,8.3
2023-04-30T23:59:37.879Z,8.4
